Time;durP1;ratioP1;P1;durP2;ratioP2;P2;SDS_P1;SDS_P2;PMS_P1;PMS_P2;Temp;Humidity;BMP_temperature;BMP_pressure;BME280_temperature;BME280_humidity;BME280_pressure;Samples;Min_cycle;Max_cycle;Signal;HPM_P1;HPM_P2
2021/12/09 00:00:12;;;;;;;7.25;6.10;;;;;;;9.45;55.90;99244.05;1804499;77;21486;-63
2021/12/09 00:02:39;;;;;;;8.55;6.45;;;;;;;9.45;55.87;99244.05;1802789;77;21482;-63
2021/12/09 00:05:08;;;;;;;8.33;6.72;;;;;;;9.45;55.83;99255.48;1805410;78;21191;-64
2021/12/09 00:07:35;;;;;;;6.53;5.78;;;;;;;9.44;55.84;99247.69;1812017;78;21073;-64
2021/12/09 00:10:05;;;;;;;6.25;5.65;;;;;;;9.45;55.82;99254.66;1808443;78;21072;-63
2021/12/09 00:12:30;;;;;;;7.67;6.28;;;;;;;9.44;55.78;99259.63;1814562;77;21055;-63
2021/12/09 00:14:59;;;;;;;7.83;5.65;;;;;;;9.44;55.77;99253.00;1818738;78;21537;-63
2021/12/09 00:17:29;;;;;;;5.90;5.30;;;;;;;9.44;55.75;99256.97;1719508;81;21079;-65
2021/12/09 00:20:00;;;;;;;6.78;5.62;;;;;;;9.43;55.73;99258.80;1758488;78;21087;-63
2021/12/09 00:22:27;;;;;;;7.10;5.80;;;;;;;9.44;55.70;99260.95;1775377;79;21066;-64
2021/12/09 00:24:54;;;;;;;7.10;6.10;;;;;;;9.44;55.70;99261.80;1759326;79;21044;-64
2021/12/09 00:27:20;;;;;;;6.83;5.20;;;;;;;9.44;55.69;99263.59;1771325;79;21011;-64
2021/12/09 00:29:46;;;;;;;7.20;5.47;;;;;;;9.43;55.65;99268.09;1756588;78;21802;-64
2021/12/09 00:32:13;;;;;;;6.37;5.08;;;;;;;9.44;55.64;99267.58;1758566;79;21077;-65
2021/12/09 00:34:44;;;;;;;6.22;5.47;;;;;;;9.44;55.63;99270.23;1758046;80;21543;-63
2021/12/09 00:37:24;;;;;;;6.33;5.33;;;;;;;9.43;55.58;99277.36;1770419;78;21073;-64
2021/12/09 00:39:45;;;;;;;7.05;5.55;;;;;;;9.44;55.57;99277.70;1770662;78;21088;-63
2021/12/09 00:42:11;;;;;;;5.35;4.83;;;;;;;9.44;55.55;99273.73;1749386;80;21778;-64
2021/12/09 00:44:37;;;;;;;5.62;5.00;;;;;;;9.43;55.55;99280.02;1757935;80;21049;-63
2021/12/09 00:47:04;;;;;;;7.15;5.03;;;;;;;9.43;55.54;99273.89;1759320;80;21542;-63
2021/12/09 00:49:31;;;;;;;7.35;5.60;;;;;;;9.43;55.49;99276.04;1747942;81;21109;-63
2021/12/09 00:51:58;;;;;;;5.70;5.05;;;;;;;9.44;55.49;99276.37;1767985;79;21559;-63
2021/12/09 00:54:34;;;;;;;6.12;4.80;;;;;;;9.43;55.48;99276.55;1768326;80;21150;-63
2021/12/09 00:57:04;;;;;;;5.15;4.65;;;;;;;9.43;55.47;99282.67;1745321;79;21578;-62
2021/12/09 00:59:31;;;;;;;5.70;5.10;;;;;;;9.43;55.45;99277.36;1737488;81;21062;-63
2021/12/09 01:01:58;;;;;;;6.12;5.05;;;;;;;9.42;55.44;99278.34;1736691;81;21050;-64
2021/12/09 01:04:24;;;;;;;5.92;5.03;;;;;;;9.43;55.43;99273.89;1750428;80;22071;-63
2021/12/09 01:06:51;;;;;;;5.15;4.45;;;;;;;9.42;55.41;99275.70;1748246;80;21141;-63
2021/12/09 01:09:27;;;;;;;5.78;4.83;;;;;;;9.42;55.41;99276.20;1741668;79;21487;-63
2021/12/09 01:11:58;;;;;;;6.35;5.10;;;;;;;9.42;55.40;99278.85;1711228;80;21629;-63
2021/12/09 01:14:25;;;;;;;5.55;4.47;;;;;;;9.41;55.35;99278.03;1750465;81;21022;-63
2021/12/09 01:16:53;;;;;;;5.67;4.45;;;;;;;9.41;55.36;99284.66;1737930;80;21101;-63
2021/12/09 01:19:20;;;;;;;4.95;4.20;;;;;;;9.42;55.36;99288.13;1735455;79;21454;-64
2021/12/09 01:21:46;;;;;;;5.83;5.22;;;;;;;9.42;55.34;99285.48;1742641;79;21015;-63
2021/12/09 01:24:12;;;;;;;5.33;4.22;;;;;;;9.41;55.30;99288.64;1754168;79;21018;-64
2021/12/09 01:26:39;;;;;;;4.92;4.42;;;;;;;9.42;55.31;99292.93;1752780;80;21046;-63
2021/12/09 01:29:14;;;;;;;4.55;3.95;;;;;;;9.42;55.30;99288.13;1771689;80;21056;-63
2021/12/09 01:31:37;;;;;;;6.10;4.22;;;;;;;9.42;55.27;99286.81;1747942;80;21118;-64
2021/12/09 01:34:04;;;;;;;5.67;4.55;;;;;;;9.42;55.25;99285.48;1748823;79;21018;-63
2021/12/09 01:36:38;;;;;;;5.65;4.85;;;;;;;9.41;55.26;99283.34;1746985;79;21069;-63
2021/12/09 01:39:05;;;;;;;;;;;;;;;9.42;55.25;99289.46;1736821;79;21101;-63
2021/12/09 01:41:31;;;;;;;5.30;4.22;;;;;;;9.43;55.25;99288.48;1742315;80;20139;-65
2021/12/09 01:43:58;;;;;;;6.58;4.83;;;;;;;9.38;55.27;99294.27;1751463;79;22411;-64
2021/12/09 01:46:25;;;;;;;4.45;4.05;;;;;;;9.38;55.25;99293.45;1745388;81;21109;-64
2021/12/09 01:48:51;;;;;;;5.28;4.60;;;;;;;9.38;55.24;99298.25;1743567;80;21098;-62
2021/12/09 01:51:18;;;;;;;5.62;4.55;;;;;;;9.39;55.23;99299.09;1751848;81;21045;-64
2021/12/09 01:53:45;;;;;;;5.72;4.40;;;;;;;9.39;55.22;99301.75;1740863;81;21105;-64
2021/12/09 01:56:21;;;;;;;4.97;4.37;;;;;;;9.38;55.22;99303.55;1741200;81;21145;-63
2021/12/09 01:58:45;;;;;;;4.70;4.20;;;;;;;9.38;55.20;99302.23;1765606;79;21105;-63
2021/12/09 02:01:11;;;;;;;5.30;4.42;;;;;;;9.39;55.19;99301.25;1736568;81;21072;-64
2021/12/09 02:03:38;;;;;;;5.20;4.28;;;;;;;9.39;55.17;99303.08;1752771;80;20991;-64
2021/12/09 02:06:04;;;;;;;5.42;4.00;;;;;;;9.40;55.12;99303.39;1734134;81;21116;-62
2021/12/09 02:08:32;;;;;;;5.12;4.28;;;;;;;9.40;55.12;99303.39;1735451;81;21120;-63
2021/12/09 02:10:59;;;;;;;4.15;3.70;;;;;;;9.40;55.09;99307.36;1734970;80;21061;-63
2021/12/09 02:13:25;;;;;;;4.55;3.75;;;;;;;9.40;55.09;99304.72;1754456;79;21533;-63
2021/12/09 02:15:54;;;;;;;4.30;3.60;;;;;;;9.39;55.06;99309.20;1747643;81;21031;-63
2021/12/09 02:18:21;;;;;;;5.22;4.33;;;;;;;9.39;55.05;99301.75;1743006;79;21015;-63
2021/12/09 02:21:13;;;;;;;5.62;4.65;;;;;;;9.40;55.05;99304.20;1752378;80;21104;-63
2021/12/09 02:23:45;;;;;;;3.87;3.47;;;;;;;9.40;55.03;99310.02;1758936;79;21089;-63
2021/12/09 02:26:13;;;;;;;4.67;3.92;;;;;;;9.39;55.04;99316.33;1755825;79;21029;-64
2021/12/09 02:28:40;;;;;;;4.45;3.62;;;;;;;9.39;55.02;99321.64;1746688;81;21039;-64
2021/12/09 02:31:07;;;;;;;4.50;3.87;;;;;;;9.38;55.02;99326.09;1761256;79;21055;-62
2021/12/09 02:33:33;;;;;;;4.28;3.42;;;;;;;9.38;55.00;99333.22;1760392;80;21302;-63
2021/12/09 02:36:00;;;;;;;4.85;3.77;;;;;;;9.38;54.99;99334.05;1761538;80;21447;-64
2021/12/09 02:38:26;;;;;;;4.53;3.70;;;;;;;9.39;54.98;99334.89;1761297;79;21027;-64
2021/12/09 02:40:53;;;;;;;4.65;3.70;;;;;;;9.39;54.98;99334.38;1739803;80;21026;-64
2021/12/09 02:43:28;;;;;;;5.42;3.65;;;;;;;9.38;54.97;99334.05;1744583;80;21012;-63
2021/12/09 02:45:56;;;;;;;4.40;3.80;;;;;;;9.39;54.96;99333.06;1726892;82;21091;-63
2021/12/09 02:48:23;;;;;;;4.47;3.47;;;;;;;9.39;54.93;99339.69;1749306;81;21013;-64
2021/12/09 02:50:50;;;;;;;4.35;3.62;;;;;;;9.39;54.92;99337.54;1752254;81;21024;-64
2021/12/09 02:53:16;;;;;;;3.98;3.40;;;;;;;9.39;54.91;99333.56;1750228;81;21069;-64
2021/12/09 02:55:43;;;;;;;4.12;3.40;;;;;;;9.40;54.89;99336.53;1758306;79;21036;-63
2021/12/09 02:58:10;;;;;;;5.20;4.15;;;;;;;9.39;54.90;99337.54;1810887;78;21057;-63
2021/12/09 03:01:02;;;;;;;4.25;3.67;;;;;;;9.39;54.89;99342.34;1808473;78;21010;-64
2021/12/09 03:03:29;;;;;;;4.08;3.67;;;;;;;9.39;54.89;99344.17;1806816;77;21037;-64
2021/12/09 03:05:56;;;;;;;4.67;3.62;;;;;;;9.39;54.86;99342.84;1806889;77;21505;-63
2021/12/09 03:08:34;;;;;;;3.22;2.92;;;;;;;9.39;54.86;99345.50;1790856;78;21057;-64
2021/12/09 03:10:52;;;;;;;3.83;3.45;;;;;;;9.39;54.84;99352.13;1793023;77;21931;-64
2021/12/09 03:13:20;;;;;;;4.28;3.80;;;;;;;9.38;54.83;99348.62;1802763;78;21060;-65
2021/12/09 03:15:46;;;;;;;3.92;3.25;;;;;;;9.38;54.80;99347.30;1804882;78;21045;-65
2021/12/09 03:18:13;;;;;;;4.42;3.60;;;;;;;9.38;54.79;99351.27;1808513;77;21075;-64
2021/12/09 03:20:41;;;;;;;3.85;3.27;;;;;;;9.38;54.79;99346.48;1811099;78;21068;-63
2021/12/09 03:23:07;;;;;;;4.55;3.75;;;;;;;9.38;54.79;99349.95;1783632;78;21315;-63
2021/12/09 03:25:34;;;;;;;4.12;3.30;;;;;;;9.40;54.78;99357.73;1815270;77;21073;-63
2021/12/09 03:28:00;;;;;;;3.45;3.15;;;;;;;9.38;54.76;99356.58;1796186;78;21033;-63
2021/12/09 03:30:27;;;;;;;5.85;3.55;;;;;;;9.38;54.76;99357.08;1806214;78;21013;-63
2021/12/09 03:32:54;;;;;;;4.05;3.65;;;;;;;9.38;54.74;99358.41;1797664;78;21280;-64
2021/12/09 03:35:20;;;;;;;4.17;3.47;;;;;;;9.38;54.75;99362.38;1796994;77;21066;-65
2021/12/09 03:37:47;;;;;;;3.75;3.25;;;;;;;9.38;54.75;99363.20;1803166;77;21517;-62
2021/12/09 03:40:14;;;;;;;4.42;3.50;;;;;;;9.39;54.71;99362.73;1728873;81;21061;-64
2021/12/09 03:42:41;;;;;;;4.45;3.92;;;;;;;9.38;54.71;99358.41;1792455;78;21088;-63
2021/12/09 03:45:09;;;;;;;3.90;3.22;;;;;;;9.38;54.70;99360.55;1809768;78;21005;-63
2021/12/09 03:47:36;;;;;;;3.77;3.22;;;;;;;9.40;54.67;99363.04;1793130;78;21509;-64
2021/12/09 03:50:05;;;;;;;3.72;3.25;;;;;;;9.39;54.67;99366.20;1793521;78;20978;-63
2021/12/09 03:52:33;;;;;;;3.92;3.17;;;;;;;9.39;54.66;99364.88;1799191;78;21053;-63
2021/12/09 03:55:00;;;;;;;4.17;3.27;;;;;;;9.39;54.66;99360.08;1815239;78;21040;-62
2021/12/09 03:57:26;;;;;;;3.72;3.20;;;;;;;9.39;54.66;99360.08;1796654;78;21460;-63
2021/12/09 03:59:53;;;;;;;3.55;3.25;;;;;;;9.38;54.63;99361.88;1801154;78;21113;-64
2021/12/09 04:02:20;;;;;;;3.52;3.20;;;;;;;9.39;54.62;99362.22;1810746;78;20990;-64
2021/12/09 04:04:46;;;;;;;3.17;2.87;;;;;;;9.39;54.60;99366.20;1813240;78;21009;-63
2021/12/09 04:07:13;;;;;;;3.47;2.90;;;;;;;9.40;54.61;99371.00;1809091;78;21013;-63
2021/12/09 04:09:39;;;;;;;3.65;3.00;;;;;;;9.40;54.56;99371.00;1818898;77;21074;-64
2021/12/09 04:12:09;;;;;;;3.87;3.20;;;;;;;9.41;54.57;99380.62;1816556;77;21087;-63
2021/12/09 04:14:36;;;;;;;3.00;2.70;;;;;;;9.40;54.58;99373.64;1806999;78;21482;-63
2021/12/09 04:17:03;;;;;;;3.87;3.02;;;;;;;9.40;54.56;99378.95;1823774;77;21131;-64
2021/12/09 04:19:30;;;;;;;3.35;2.92;;;;;;;9.39;54.55;99372.83;1824385;77;21043;-65
2021/12/09 04:21:57;;;;;;;3.25;2.90;;;;;;;9.38;54.54;99371.16;1824940;78;21001;-64
2021/12/09 04:24:23;;;;;;;3.33;3.00;;;;;;;9.39;54.53;99368.03;1811035;78;21138;-64
2021/12/09 04:26:52;;;;;;;3.35;2.55;;;;;;;9.40;54.53;99372.31;1817866;77;21514;-64
2021/12/09 04:29:19;;;;;;;3.25;2.85;;;;;;;9.38;54.52;99374.31;1806574;78;20998;-64
2021/12/09 04:31:47;;;;;;;2.90;2.42;;;;;;;9.38;54.53;99377.78;1815910;78;21025;-63
2021/12/09 04:34:15;;;;;;;3.08;2.50;;;;;;;9.38;54.53;99379.62;1803005;78;21490;-64
2021/12/09 04:36:41;;;;;;;3.10;2.80;;;;;;;9.39;54.53;99381.29;1803522;78;21066;-64
2021/12/09 04:39:08;;;;;;;3.27;2.70;;;;;;;9.39;54.50;99381.29;1825514;78;21014;-64
2021/12/09 04:41:34;;;;;;;2.83;2.52;;;;;;;9.39;54.49;99383.94;1800522;78;21088;-64
2021/12/09 04:44:01;;;;;;;3.55;2.77;;;;;;;9.39;54.48;99381.29;1812525;77;21059;-63
2021/12/09 04:46:27;;;;;;;4.17;3.52;;;;;;;9.39;54.47;99378.63;1804840;77;21064;-64
2021/12/09 04:48:53;;;;;;;3.80;3.10;;;;;;;9.40;54.46;99385.58;1821018;78;21075;-64
2021/12/09 04:51:20;;;;;;;3.65;3.35;;;;;;;9.39;54.45;99384.75;1794925;78;21469;-63
2021/12/09 04:53:46;;;;;;;3.22;2.87;;;;;;;9.39;54.46;99391.89;1801148;78;21035;-63
2021/12/09 04:56:13;;;;;;;3.47;3.00;;;;;;;9.38;54.45;99395.02;1803516;78;21487;-64
2021/12/09 04:58:40;;;;;;;3.77;3.40;;;;;;;9.38;54.42;99406.95;1794634;78;21055;-64
2021/12/09 05:01:07;;;;;;;4.17;3.27;;;;;;;9.39;54.44;99407.80;1813863;78;21136;-64
2021/12/09 05:03:35;;;;;;;6.17;3.77;;;;;;;9.40;54.41;99413.41;1800522;78;21029;-62
2021/12/09 05:06:01;;;;;;;3.62;3.05;;;;;;;9.38;54.41;99409.59;1797647;78;21002;-64
2021/12/09 05:08:31;;;;;;;3.90;3.00;;;;;;;9.38;54.40;99414.90;1796144;78;20966;-64
2021/12/09 05:11:11;;;;;;;3.65;3.22;;;;;;;9.39;54.41;99414.42;1794623;78;21025;-63
2021/12/09 05:13:37;;;;;;;3.62;3.20;;;;;;;9.39;54.38;99410.45;1812987;78;21791;-63
2021/12/09 05:16:05;;;;;;;3.77;3.08;;;;;;;9.38;54.40;99414.08;1815164;77;20989;-63
2021/12/09 05:18:35;;;;;;;3.42;3.08;;;;;;;9.38;54.38;99421.53;1820389;78;20986;-64
2021/12/09 05:21:03;;;;;;;2.90;2.60;;;;;;;9.38;54.39;99418.06;1806416;78;21704;-63
2021/12/09 05:23:30;;;;;;;3.65;2.98;;;;;;;9.38;54.38;99422.03;1796713;78;21489;-64
2021/12/09 05:25:56;;;;;;;2.65;2.42;;;;;;;9.38;54.35;99420.70;1806177;78;21111;-63
2021/12/09 05:28:41;;;;;;;3.58;3.10;;;;;;;9.38;54.34;99419.38;1808179;77;21478;-63
2021/12/09 05:33:39;;;;;;;3.75;3.05;;;;;;;9.38;54.33;99432.64;1798425;78;21509;-63
2021/12/09 05:36:06;;;;;;;3.20;2.83;;;;;;;9.38;54.33;99440.59;1815795;78;20989;-63
2021/12/09 05:38:32;;;;;;;3.30;3.00;;;;;;;9.38;54.33;99439.27;1812800;78;21768;-63
2021/12/09 05:40:59;;;;;;;3.17;2.80;;;;;;;9.38;54.33;99444.06;1795054;78;21028;-63
2021/12/09 05:43:26;;;;;;;3.62;3.12;;;;;;;9.37;54.31;99441.10;1815569;78;21029;-65
2021/12/09 05:45:53;;;;;;;2.80;2.30;;;;;;;9.38;54.30;99442.73;1811471;78;21029;-63
2021/12/09 05:48:19;;;;;;;3.58;3.22;;;;;;;9.38;54.29;99446.72;1817572;77;21525;-64
2021/12/09 05:50:46;;;;;;;3.12;2.83;;;;;;;9.38;54.29;99443.25;1804848;79;21101;-64
2021/12/09 05:53:13;;;;;;;4.08;3.00;;;;;;;9.38;54.27;99450.69;1782447;79;21601;-63
2021/12/09 05:55:43;;;;;;;3.52;2.98;;;;;;;9.38;54.27;99445.39;1790592;78;21026;-64
2021/12/09 05:58:07;;;;;;;3.20;2.90;;;;;;;9.38;54.29;99459.97;1803041;78;21018;-64
2021/12/09 06:00:34;;;;;;;3.08;2.75;;;;;;;9.38;54.26;99455.17;1789395;79;21061;-63
2021/12/09 06:03:00;;;;;;;3.35;3.05;;;;;;;9.38;54.25;99458.64;1782167;79;21125;-63
2021/12/09 06:05:26;;;;;;;3.80;3.27;;;;;;;9.38;54.24;99464.45;1803544;79;21593;-64
2021/12/09 06:07:53;;;;;;;3.75;2.80;;;;;;;9.38;54.27;99471.08;1791713;79;21037;-62
2021/12/09 06:10:20;;;;;;;3.33;3.02;;;;;;;9.37;54.25;99472.91;1800789;78;20975;-64
2021/12/09 06:12:46;;;;;;;4.12;3.10;;;;;;;9.38;54.25;99473.23;1807772;79;21085;-63
2021/12/09 06:15:13;;;;;;;3.12;2.83;;;;;;;9.39;54.24;99477.55;1801692;78;21022;-62
2021/12/09 06:17:40;;;;;;;4.05;3.25;;;;;;;9.39;54.23;99478.05;1808860;78;21402;-64
2021/12/09 06:20:08;;;;;;;4.45;3.33;;;;;;;9.39;54.22;99488.66;1792270;78;21053;-64
2021/12/09 06:22:36;;;;;;;3.77;3.40;;;;;;;9.39;54.21;99492.13;1806246;78;20942;-63
2021/12/09 06:25:04;;;;;;;3.05;2.60;;;;;;;9.39;54.20;99490.80;1792101;79;21096;-65
2021/12/09 06:27:31;;;;;;;3.85;3.20;;;;;;;9.39;54.21;99501.41;1802075;78;21124;-64
2021/12/09 06:29:57;;;;;;;4.47;3.10;;;;;;;9.40;54.18;99499.58;1795407;79;21564;-63
2021/12/09 06:32:26;;;;;;;3.15;2.85;;;;;;;9.39;54.18;99498.76;1804358;79;21013;-64
2021/12/09 06:34:53;;;;;;;3.72;3.02;;;;;;;9.39;54.17;99501.41;1799890;79;21037;-64
2021/12/09 06:37:20;;;;;;;3.70;3.30;;;;;;;9.39;54.17;99506.72;1792251;79;20930;-63
2021/12/09 06:39:47;;;;;;;3.60;3.22;;;;;;;9.40;54.15;99507.53;1788601;79;21114;-64
2021/12/09 06:42:16;;;;;;;3.77;3.25;;;;;;;9.39;54.17;99508.55;1788080;78;21005;-64
2021/12/09 06:44:42;;;;;;;3.35;2.87;;;;;;;9.39;54.14;99504.57;1797045;77;21005;-64
2021/12/09 06:47:08;;;;;;;3.20;2.72;;;;;;;9.39;54.16;99512.52;1789318;79;21065;-65
2021/12/09 06:49:35;;;;;;;4.12;3.27;;;;;;;9.41;54.15;99510.53;1819799;78;20998;-64
2021/12/09 06:52:01;;;;;;;4.00;3.47;;;;;;;9.40;54.14;99511.00;1803411;77;21056;-64
2021/12/09 06:54:28;;;;;;;4.33;3.60;;;;;;;9.40;54.13;99516.31;1814617;78;21068;-64
2021/12/09 06:56:54;;;;;;;3.90;3.50;;;;;;;9.40;54.14;99516.31;1803423;78;21568;-64
2021/12/09 06:59:20;;;;;;;5.12;3.90;;;;;;;9.41;54.10;99522.46;1802831;78;21009;-63
2021/12/09 07:01:47;;;;;;;4.95;4.10;;;;;;;9.41;54.10;99518.48;1801609;78;21536;-64
2021/12/09 07:04:14;;;;;;;4.20;3.80;;;;;;;9.41;54.09;99526.44;1806731;77;21089;-67
2021/12/09 07:06:40;;;;;;;4.28;3.87;;;;;;;9.40;54.08;99526.91;1807590;78;21069;-67
2021/12/09 07:09:07;;;;;;;4.60;3.72;;;;;;;9.41;54.08;99530.41;1750515;81;21064;-64
2021/12/09 07:11:36;;;;;;;4.50;3.87;;;;;;;9.41;54.09;99535.21;1749614;81;21022;-64
2021/12/09 07:14:03;;;;;;;4.70;3.75;;;;;;;9.41;54.08;99537.05;1756940;80;21570;-62
2021/12/09 07:16:30;;;;;;;4.97;3.85;;;;;;;9.40;54.07;99544.15;1752596;80;21132;-63
2021/12/09 07:19:00;;;;;;;4.70;3.85;;;;;;;9.41;54.08;99548.98;1770796;80;20998;-63
2021/12/09 07:21:26;;;;;;;3.77;3.30;;;;;;;9.40;54.07;99550.77;1748901;80;21022;-63
2021/12/09 07:23:53;;;;;;;4.50;3.58;;;;;;;9.41;54.06;99546.33;1770476;80;21006;-65
2021/12/09 07:26:19;;;;;;;4.53;3.90;;;;;;;9.40;54.08;99542.82;1759357;80;21053;-65
2021/12/09 07:28:45;;;;;;;3.85;3.45;;;;;;;9.41;54.07;99548.47;1771145;79;21039;-64
2021/12/09 07:31:11;;;;;;;5.30;3.62;;;;;;;9.41;54.06;99548.47;1772484;80;21459;-63
2021/12/09 07:33:38;;;;;;;4.83;4.20;;;;;;;9.41;54.06;99551.13;1769561;80;21003;-64
2021/12/09 07:36:05;;;;;;;3.85;3.45;;;;;;;9.42;54.06;99552.77;1764659;80;21088;-65
2021/12/09 07:38:32;;;;;;;4.55;3.65;;;;;;;9.42;54.06;99555.92;1765937;80;22205;-65
2021/12/09 07:40:58;;;;;;;4.55;3.37;;;;;;;9.42;54.06;99555.92;1769214;80;21085;-65
2021/12/09 07:43:26;;;;;;;5.33;4.35;;;;;;;9.42;54.06;99558.57;1768984;80;21041;-66
2021/12/09 07:45:52;;;;;;;5.33;4.10;;;;;;;9.42;54.06;99559.39;1762106;80;20998;-66
2021/12/09 07:48:18;;;;;;;4.85;4.08;;;;;;;9.43;54.04;99557.59;1773765;80;21581;-66
2021/12/09 07:50:46;;;;;;;5.05;4.05;;;;;;;9.43;54.04;99565.55;1778592;80;20985;-65
2021/12/09 07:53:12;;;;;;;4.40;3.92;;;;;;;9.44;54.03;99567.19;1739376;81;21144;-64
2021/12/09 07:55:38;;;;;;;5.03;3.90;;;;;;;9.43;54.02;99571.67;1792969;78;21419;-65
2021/12/09 07:58:05;;;;;;;5.47;4.60;;;;;;;9.43;54.01;99565.55;1810512;77;21012;-66
2021/12/09 08:00:32;;;;;;;4.60;3.70;;;;;;;9.43;54.00;99571.67;1800786;78;21084;-66
2021/12/09 08:03:00;;;;;;;4.42;3.95;;;;;;;9.44;54.00;99571.16;1749590;81;21021;-65
2021/12/09 08:05:29;;;;;;;4.40;4.00;;;;;;;9.44;54.00;99569.84;1779951;78;21767;-66
2021/12/09 08:07:55;;;;;;;4.65;3.92;;;;;;;9.44;53.99;99577.80;1765417;79;21498;-65
2021/12/09 08:10:22;;;;;;;5.65;4.53;;;;;;;9.43;53.99;99579.63;1776366;79;21080;-64
2021/12/09 08:12:49;;;;;;;4.22;3.75;;;;;;;9.45;53.98;99586.09;1757449;80;21093;-65
2021/12/09 08:15:17;;;;;;;4.50;4.00;;;;;;;9.45;53.98;99592.72;1761660;80;21042;-64
2021/12/09 08:17:56;;;;;;;4.00;3.60;;;;;;;9.44;53.97;99581.30;1756704;80;21542;-63
2021/12/09 08:20:15;;;;;;;4.60;4.17;;;;;;;9.46;53.95;99589.06;1789548;79;21711;-64
2021/12/09 08:22:44;;;;;;;4.62;4.10;;;;;;;9.45;53.94;99588.75;1777145;79;21543;-65
2021/12/09 08:25:13;;;;;;;4.97;4.08;;;;;;;9.44;53.95;99589.25;1780167;78;21000;-64
2021/12/09 08:27:43;;;;;;;4.47;3.92;;;;;;;9.45;53.97;99587.42;1781255;80;21069;-64
2021/12/09 08:30:12;;;;;;;5.42;4.42;;;;;;;9.44;53.96;99586.59;1744671;80;21269;-64
2021/12/09 08:32:40;;;;;;;5.05;3.75;;;;;;;9.45;53.95;99585.59;1822873;77;20998;-63
2021/12/09 08:35:07;;;;;;;4.45;4.03;;;;;;;9.46;53.94;99594.36;1814696;78;21497;-64
2021/12/09 08:37:33;;;;;;;5.20;4.15;;;;;;;9.46;53.93;99593.04;1821510;78;21545;-64
2021/12/09 08:40:00;;;;;;;5.37;4.42;;;;;;;9.47;53.94;99592.06;1813383;77;21036;-65
2021/12/09 08:42:27;;;;;;;5.10;4.20;;;;;;;9.47;53.92;99589.91;1810380;77;21517;-65
2021/12/09 08:44:54;;;;;;;5.33;4.30;;;;;;;9.48;53.92;99592.88;1803688;78;21036;-64
2021/12/09 08:47:20;;;;;;;4.28;3.77;;;;;;;9.48;53.91;99592.88;1816916;77;21042;-64
2021/12/09 08:49:47;;;;;;;4.70;3.95;;;;;;;9.37;53.89;99571.01;1798683;77;21057;-66
2021/12/09 08:52:14;;;;;;;6.50;4.87;;;;;;;9.48;53.91;99584.92;1794227;78;21049;-66
2021/12/09 08:54:41;;;;;;;4.60;3.95;;;;;;;9.49;53.88;99589.25;1785484;79;22126;-64
2021/12/09 08:57:10;;;;;;;5.62;4.42;;;;;;;9.48;53.87;99589.72;1800711;78;21038;-64
2021/12/09 08:59:36;;;;;;;5.67;4.70;;;;;;;9.49;53.88;99587.92;1807104;78;20994;-64
2021/12/09 09:02:04;;;;;;;5.37;4.20;;;;;;;9.49;53.86;99586.09;1807927;78;21010;-65
2021/12/09 09:04:30;;;;;;;6.78;4.35;;;;;;;9.48;53.86;99581.77;1808890;78;21113;-64
2021/12/09 09:06:59;;;;;;;5.55;4.40;;;;;;;9.49;53.86;99578.14;1808288;78;21912;-65
2021/12/09 09:09:27;;;;;;;4.45;4.03;;;;;;;9.50;53.85;99584.27;1801013;78;21650;-65
2021/12/09 09:11:54;;;;;;;5.22;4.05;;;;;;;9.51;53.84;99580.63;1793074;77;21124;-65
2021/12/09 09:14:20;;;;;;;4.78;4.28;;;;;;;9.50;53.86;99582.43;1802951;78;21049;-65
2021/12/09 09:16:47;;;;;;;6.40;5.15;;;;;;;9.51;53.83;99581.95;1794359;78;21011;-65
2021/12/09 09:19:13;;;;;;;4.90;4.15;;;;;;;9.50;53.84;99579.78;1804252;79;21753;-65
2021/12/09 09:21:42;;;;;;;4.70;4.17;;;;;;;9.51;53.83;99580.13;1802183;78;21013;-64
2021/12/09 09:24:09;;;;;;;5.37;4.53;;;;;;;9.52;53.83;99578.30;1808318;77;21057;-64
2021/12/09 09:26:37;;;;;;;4.58;4.00;;;;;;;9.52;53.81;99583.59;1802645;78;21026;-64
2021/12/09 09:29:03;;;;;;;5.70;4.78;;;;;;;9.52;53.82;99583.13;1808354;78;21034;-64
2021/12/09 09:31:32;;;;;;;5.30;4.72;;;;;;;9.53;53.78;99588.74;1805222;78;21119;-65
2021/12/09 09:34:02;;;;;;;4.80;4.30;;;;;;;9.52;53.82;99583.13;1730585;82;21029;-66
2021/12/09 09:36:31;;;;;;;6.05;4.65;;;;;;;9.52;53.78;99584.45;1729776;81;21058;-66
2021/12/09 09:39:16;;;;;;;4.80;4.25;;;;;;;9.53;53.78;99579.47;1738412;81;21006;-63
2021/12/09 09:41:36;;;;;;;5.58;4.85;;;;;;;9.52;53.79;99587.10;1748736;79;21062;-66
2021/12/09 09:44:16;;;;;;;6.08;4.37;;;;;;;9.52;53.77;99585.78;1756528;78;21218;-64
2021/12/09 09:46:42;;;;;;;5.50;4.67;;;;;;;9.53;53.80;99585.27;1747358;80;21046;-64
2021/12/09 09:49:08;;;;;;;4.78;4.15;;;;;;;9.52;53.78;99580.47;1754056;80;21034;-65
2021/12/09 09:51:37;;;;;;;6.55;4.78;;;;;;;9.52;53.78;99577.82;1753872;80;21143;-65
2021/12/09 09:54:05;;;;;;;5.08;4.58;;;;;;;9.53;53.76;99572.02;1748583;81;21101;-64
2021/12/09 09:56:33;;;;;;;5.50;4.22;;;;;;;9.54;53.77;99576.30;1750529;79;21065;-63
2021/12/09 09:59:05;;;;;;;6.22;4.72;;;;;;;9.53;53.80;99574.16;1755497;81;21058;-62
2021/12/09 10:01:34;;;;;;;4.87;4.30;;;;;;;9.55;53.76;99579.30;1739798;80;21048;-63
2021/12/09 10:04:21;;;;;;;6.22;4.60;;;;;;;9.54;53.75;99581.13;1731879;81;21031;-64
2021/12/09 10:06:44;;;;;;;5.75;4.40;;;;;;;9.54;53.75;99581.13;1751047;81;21031;-63
2021/12/09 10:09:12;;;;;;;5.58;4.10;;;;;;;9.55;53.76;99579.30;1783596;80;21105;-63
2021/12/09 10:11:39;;;;;;;6.00;4.87;;;;;;;9.54;53.76;99579.81;1763953;81;21022;-63
2021/12/09 10:14:19;;;;;;;5.92;4.67;;;;;;;9.55;53.75;99586.75;1751175;81;21053;-63
2021/12/09 10:16:49;;;;;;;5.30;4.60;;;;;;;9.55;53.76;99584.61;1759502;81;21019;-64
2021/12/09 10:19:18;;;;;;;6.58;4.95;;;;;;;9.55;53.75;99576.14;1764345;80;21046;-64
2021/12/09 10:21:45;;;;;;;5.97;4.78;;;;;;;9.57;53.72;99579.46;1758468;80;21123;-63
2021/12/09 10:24:11;;;;;;;5.05;4.55;;;;;;;9.55;53.73;99577.47;1754090;80;21038;-65
2021/12/09 10:26:42;;;;;;;5.50;4.90;;;;;;;9.57;53.72;99586.09;1750266;80;21070;-62
2021/12/09 10:29:19;;;;;;;5.92;4.72;;;;;;;9.55;53.73;99584.61;1732982;82;21056;-64
2021/12/09 10:31:55;;;;;;;4.65;4.10;;;;;;;9.55;53.74;99588.08;1756580;79;21055;-63
2021/12/09 10:34:42;;;;;;;5.53;4.90;;;;;;;9.57;53.73;99587.92;1739362;81;21097;-64
2021/12/09 10:37:28;;;;;;;5.25;4.53;;;;;;;9.56;53.74;99593.73;1726856;81;21053;-63
2021/12/09 10:40:09;;;;;;;5.08;4.53;;;;;;;9.55;53.75;99597.36;1743204;81;21093;-63
2021/12/09 10:42:45;;;;;;;5.92;5.03;;;;;;;9.55;53.76;99601.84;1745395;81;21499;-63
2021/12/09 10:45:16;;;;;;;5.95;4.97;;;;;;;9.54;53.78;99593.07;1754856;80;21012;-63
2021/12/09 10:47:56;;;;;;;5.30;4.80;;;;;;;9.54;53.78;99594.39;1758577;81;21100;-61
2021/12/09 10:53:32;;;;;;;5.58;4.25;;;;;;;9.56;53.78;99602.16;1767094;80;21080;-63
2021/12/09 10:55:55;;;;;;;5.58;4.58;;;;;;;9.55;53.76;99605.31;1766047;80;21570;-61
2021/12/09 10:58:26;;;;;;;4.92;4.42;;;;;;;9.55;53.75;99607.97;1763669;80;21092;-63
2021/12/09 11:00:56;;;;;;;5.67;4.80;;;;;;;9.54;53.79;99607.66;1749853;80;22337;-64
2021/12/09 11:03:26;;;;;;;5.47;4.70;;;;;;;9.55;53.78;99609.80;1763769;80;21589;-63
2021/12/09 11:06:03;;;;;;;5.25;4.65;;;;;;;9.55;53.76;99605.82;1776760;79;21034;-63
2021/12/09 11:08:47;;;;;;;5.37;4.87;;;;;;;9.55;53.78;99608.47;1772720;80;21072;-63
2021/12/09 11:11:18;;;;;;;5.25;4.75;;;;;;;9.55;53.75;99601.84;1748906;80;21029;-62
2021/12/09 11:13:49;;;;;;;5.30;4.75;;;;;;;9.55;53.78;99603.17;1765569;80;21152;-63
2021/12/09 11:16:26;;;;;;;4.75;4.25;;;;;;;9.54;53.78;99599.70;1769881;80;21003;-62
2021/12/09 11:19:09;;;;;;;6.03;4.80;;;;;;;9.54;53.77;99594.87;1760485;79;21529;-62
2021/12/09 11:21:41;;;;;;;5.33;4.62;;;;;;;9.53;53.76;99592.72;1772166;80;21015;-63
2021/12/09 11:24:12;;;;;;;5.72;5.00;;;;;;;9.54;53.78;99583.78;1760587;80;21017;-63
2021/12/09 11:26:55;;;;;;;5.72;5.03;;;;;;;9.54;53.79;99582.94;1757807;80;21981;-62
2021/12/09 11:29:36;;;;;;;6.22;4.90;;;;;;;9.55;53.76;99581.45;1768362;80;21083;-64
2021/12/09 11:32:15;;;;;;;5.12;4.40;;;;;;;9.55;53.75;99580.63;1764459;79;21087;-64
2021/12/09 11:34:45;;;;;;;5.40;4.55;;;;;;;9.54;53.76;99578.48;1751425;80;21554;-64
2021/12/09 11:37:33;;;;;;;5.58;5.03;;;;;;;9.55;53.79;99588.59;1767625;80;21077;-63
2021/12/09 11:39:39;;;;;;;6.05;4.72;;;;;;;9.54;53.76;99593.07;1721794;80;21109;-61
2021/12/09 11:42:19;;;;;;;6.00;5.10;;;;;;;9.55;53.75;99593.38;1774399;80;20983;-61
2021/12/09 11:44:45;;;;;;;5.50;4.40;;;;;;;9.55;53.75;99596.03;1756426;80;21044;-62
2021/12/09 11:47:13;;;;;;;5.60;5.10;;;;;;;9.55;53.74;99592.06;1748705;80;21522;-63
2021/12/09 11:49:43;;;;;;;5.60;5.00;;;;;;;9.55;53.74;99597.36;1765716;80;21035;-65
2021/12/09 11:52:12;;;;;;;5.80;4.70;;;;;;;9.56;53.73;99595.06;1710578;82;21797;-65